| time (UTC) | temp C | wind direction | speed KPH | gust KPH | rain 1hr cm | rain 24hr cm | rain mn cm | humidity % | barometer mb |
| 20260504160326 | 10 | 5 | 19.3 | 33.8 | 0.00 | 0.00 | 0.00 | 53 | 1010.5 |
| 20260504150332 | 10 | 9 | 29.0 | 43.5 | 0.00 | 0.00 | 0.00 | 51 | 1009.5 |
| 20260504140338 | 10 | 340 | 27.4 | 38.6 | 0.00 | 0.00 | 0.00 | 55 | 1008.6 |
| 20260504130328 | 8 | 245 | 14.5 | 17.7 | 0.00 | 0.00 | 0.00 | 57 | 1006.4 |
| 20260504110335 | 7 | 311 | 4.8 | 11.3 | 0.00 | 0.00 | 0.00 | 59 | 1006.1 |
| 20260504100336 | 7 | 326 | 3.2 | 11.3 | 0.00 | 0.00 | 0.00 | 61 | 1006.1 |
| 20260504080335 | 7 | 238 | 9.7 | 12.9 | 0.00 | 0.00 | 0.00 | 59 | 1006.7 |
| 20260504070329 | 6 | 336 | 1.6 | 6.4 | 0.00 | 0.00 | 0.00 | 65 | 1007.3 |
| 20260504050322 | 8 | 234 | 6.4 | 8.0 | 0.00 | 0.00 | 0.00 | 61 | 1008.1 |
| 20260504043329 | 7 | 271 | 3.2 | 6.4 | 0.00 | 0.00 | 0.00 | 61 | 1008.4 |
| 20260504040336 | 7 | 294 | 4.8 | 6.4 | 0.00 | 0.00 | 0.00 | 63 | 1008.6 |
| 20260504033319 | 8 | 294 | 3.2 | 4.8 | 0.00 | 0.00 | 0.00 | 58 | 1008.6 |
| 20260504030345 | 11 | 215 | 4.8 | 4.8 | 0.00 | 0.00 | 0.00 | 49 | 1008.6 |
| 20260504023349 | 13 | 168 | 8.0 | 9.7 | 0.00 | 0.00 | 0.00 | 45 | 1008.6 |
| 20260504020330 | 14 | 262 | 3.2 | 4.8 | 0.00 | 0.00 | 0.00 | 42 | 1008.4 |
| 20260504013333 | 17 | 118 | 3.2 | 4.8 | 0.00 | 0.00 | 0.00 | 37 | 1008.3 |
| 20260504010329 | 18 | 138 | 0.0 | 4.8 | 0.00 | 0.00 | 0.00 | 33 | 1008.7 |
| 20260504003400 | 17 | 100 | 6.4 | 12.9 | 0.00 | 0.00 | 0.00 | 34 | 1008.8 |
| 20260504000339 | 17 | 113 | 6.4 | 11.3 | 0.00 | 0.00 | 0.00 | 36 | 1009.3 |
| 20260503233334 | 17 | 91 | 3.2 | 16.1 | 0.00 | 0.00 | 0.00 | 37 | 1009.3 |
| 20260503230329 | 17 | 26 | 14.5 | 22.5 | 0.00 | 0.00 | 0.00 | 37 | 1009.4 |
| 20260503223335 | 16 | 45 | 19.3 | 24.1 | 0.00 | 0.00 | 0.00 | 43 | 1009.9 |
| 20260503220323 | 15 | 33 | 17.7 | 30.6 | 0.00 | 0.00 | 0.00 | 50 | 1010.4 |
| 20260503213325 | 18 | 347 | 19.3 | 49.9 | 0.00 | 0.00 | 0.00 | 29 | 1009.8 |
| 20260503210323 | 15 | 306 | 9.7 | 22.5 | 0.00 | 0.00 | 0.00 | 41 | 1010.2 |
| 20260503203328 | 16 | 321 | 29.0 | 59.5 | 0.00 | 0.00 | 0.00 | 35 | 1010.5 |
| 20260503200324 | 20 | 215 | 16.1 | 30.6 | 0.00 | 0.00 | 0.00 | 24 | 1010.4 |
| 20260503193329 | 19 | 222 | 11.3 | 30.6 | 0.00 | 0.00 | 0.00 | 27 | 1011.1 |
| 20260503190339 | 19 | 302 | 12.9 | 22.5 | 0.00 | 0.00 | 0.00 | 31 | 1011.5 |
| 20260503183325 | 18 | 238 | 4.8 | 17.7 | 0.00 | 0.00 | 0.00 | 33 | 1012.2 |
| 20260503180336 | 16 | 293 | 8.0 | 17.7 | 0.00 | 0.00 | 0.00 | 36 | 1012.6 |
| 20260503173330 | 16 | 284 | 3.2 | 14.5 | 0.00 | 0.00 | 0.00 | 39 | 1013.3 |
| 20260503170344 | 15 | 177 | 6.4 | 12.9 | 0.00 | 0.00 | 0.00 | 42 | 1013.5 |